Terminal Aerodrome Forecast
Issued by NWS

Home | Current Version | Previous Version | Text Only | Print | Product List | Glossary Off
Versions: 1 2 3 4 5 6 7 8 9 10 11 12 13 14

000
FTUS43 KGRB 181100
TAFAUW
TAF
KAUW 181132Z 1812/1912 34006KT P6SM SCT100
      TEMPO 1816/1820 SCT040 BKN080
     FM182000 03008KT P6SM SCT080
     FM182300 10006KT P6SM SCT080
     FM190400 12008KT P6SM BKN100=

USA.gov is the U.S. government's official web portal to all federal, state and local government web resources and services.